Time;durP1;ratioP1;P1;durP2;ratioP2;P2;SDS_P1;SDS_P2;PMS_P1;PMS_P2;Temp;Humidity;BMP_temperature;BMP_pressure;BME280_temperature;BME280_humidity;BME280_pressure;Samples;Min_cycle;Max_cycle;Signal;HPM_P1;HPM_P2
2023/12/06 00:01:20;;;;;;;;;;;;;;;18.75;35.02;100954.97;5067172;28;19964;-68
2023/12/06 00:03:46;;;;;;;;;;;;;;;18.74;34.72;100947.19;5067893;28;20295;-67
2023/12/06 00:06:11;;;;;;;;;;;;;;;18.72;34.83;100947.31;5066861;28;19956;-67
2023/12/06 00:08:36;;;;;;;;;;;;;;;18.71;34.78;100952.72;5066865;28;20376;-68
2023/12/06 00:11:01;;;;;;;;;;;;;;;18.69;34.72;100950.19;5066962;28;19920;-67
2023/12/06 00:13:27;;;;;;;;;;;;;;;18.68;34.68;100956.47;5066446;28;19924;-69
2023/12/06 00:15:52;;;;;;;;;;;;;;;18.65;34.73;100959.34;5066910;28;20342;-67
2023/12/06 00:18:17;;;;;;;;;;;;;;;18.64;34.75;100960.31;5067037;28;19943;-67
2023/12/06 00:20:42;;;;;;;;;;;;;;;18.62;34.91;100960.44;5067010;28;21155;-69
2023/12/06 00:23:07;;;;;;;;;;;;;;;18.62;34.69;100971.00;5067278;28;19965;-67
2023/12/06 00:25:32;;;;;;;;;;;;;;;18.61;34.94;100963.19;5066739;28;19920;-67
2023/12/06 00:27:58;;;;;;;;;;;;;;;18.59;34.78;100973.88;5067156;28;19927;-68
2023/12/06 00:30:23;;;;;;;;;;;;;;;18.57;34.63;100975.81;5066766;28;20307;-68
2023/12/06 00:32:48;;;;;;;;;;;;;;;18.57;34.63;100977.63;5067040;28;19913;-68
2023/12/06 00:35:13;;;;;;;;;;;;;;;18.56;34.66;100974.13;5067304;28;19927;-67
2023/12/06 00:37:38;;;;;;;;;;;;;;;18.54;34.85;100973.41;5066834;28;20369;-68
2023/12/06 00:40:05;;;;;;;;;;;;;;;18.53;34.50;100981.47;5066832;28;20009;-66
2023/12/06 00:42:30;;;;;;;;;;;;;;;18.51;34.70;100980.75;5066224;28;19916;-68
2023/12/06 00:44:55;;;;;;;;;;;;;;;18.50;34.77;100985.19;5066685;28;19970;-67
2023/12/06 00:47:21;;;;;;;;;;;;;;;18.48;34.87;100987.97;5064611;28;20257;-68
2023/12/06 00:49:46;;;;;;;;;;;;;;;18.48;34.60;100990.59;5066536;28;19920;-68
2023/12/06 00:52:11;;;;;;;;;;;;;;;18.47;34.70;100993.38;5066616;28;19920;-66
2023/12/06 00:54:36;;;;;;;;;;;;;;;18.45;34.67;100998.75;5066459;28;19927;-68
2023/12/06 00:57:02;;;;;;;;;;;;;;;18.44;34.49;100997.06;5066678;28;21304;-68
2023/12/06 00:59:27;;;;;;;;;;;;;;;18.43;34.44;101003.31;5066340;28;20258;-70
2023/12/06 01:01:52;;;;;;;;;;;;;;;18.43;34.58;101013.03;5066794;28;21212;-68
2023/12/06 01:04:17;;;;;;;;;;;;;;;18.41;34.79;101010.50;5066685;28;19927;-70
2023/12/06 01:06:43;;;;;;;;;;;;;;;18.40;34.72;101006.19;5066528;28;19920;-69
2023/12/06 01:09:08;;;;;;;;;;;;;;;18.39;34.47;101011.59;5066655;28;19997;-68
2023/12/06 01:11:33;;;;;;;;;;;;;;;18.38;34.76;101013.41;5066530;28;19928;-67
2023/12/06 01:13:59;;;;;;;;;;;;;;;18.37;34.81;101022.25;5066788;28;19943;-69
2023/12/06 01:16:24;;;;;;;;;;;;;;;18.38;34.57;101017.84;5066685;28;21146;-67
2023/12/06 01:18:49;;;;;;;;;;;;;;;18.35;34.45;101021.56;5066637;28;20275;-67
2023/12/06 01:21:15;;;;;;;;;;;;;;;18.34;34.77;101025.16;5069310;28;19970;-67
2023/12/06 01:23:40;;;;;;;;;;;;;;;18.33;34.48;101031.41;5070450;28;20001;-67
2023/12/06 01:26:05;;;;;;;;;;;;;;;18.32;34.63;101032.34;5070493;28;20288;-67
2023/12/06 01:28:31;;;;;;;;;;;;;;;18.32;34.67;101032.34;5070396;28;19943;-66
2023/12/06 01:30:56;;;;;;;;;;;;;;;18.31;34.69;101041.25;5069907;28;20266;-68
2023/12/06 01:33:21;;;;;;;;;;;;;;;18.30;34.83;101043.03;5070668;28;19963;-68
2023/12/06 01:35:46;;;;;;;;;;;;;;;18.29;34.76;101044.00;5070123;28;19931;-68
2023/12/06 01:38:11;;;;;;;;;;;;;;;18.29;34.78;101046.63;5052168;28;19921;-67
2023/12/06 01:40:38;;;;;;;;;;;;;;;18.29;34.56;101048.41;5069832;28;19965;-68
2023/12/06 01:43:03;;;;;;;;;;;;;;;18.29;34.77;101053.69;5069374;28;20384;-67
2023/12/06 01:45:29;;;;;;;;;;;;;;;18.27;34.75;101048.53;5069732;28;19912;-67
2023/12/06 01:47:54;;;;;;;;;;;;;;;18.28;34.62;101059.94;5069505;28;19946;-67
2023/12/06 01:50:20;;;;;;;;;;;;;;;18.27;34.58;101061.72;5069676;28;20420;-68
2023/12/06 01:52:46;;;;;;;;;;;;;;;18.27;34.59;101058.25;5067824;28;19912;-68
2023/12/06 01:55:11;;;;;;;;;;;;;;;18.27;34.75;101064.38;5069710;28;20010;-66
2023/12/06 01:57:36;;;;;;;;;;;;;;;18.26;34.40;101059.22;5070022;28;19912;-67
2023/12/06 02:00:03;;;;;;;;;;;;;;;18.25;34.52;101063.66;5069691;28;19920;-68
2023/12/06 02:02:29;;;;;;;;;;;;;;;18.25;34.61;101065.47;5069568;28;19921;-67
2023/12/06 02:04:54;;;;;;;;;;;;;;;18.23;34.68;101057.66;5069143;28;19927;-68
2023/12/06 02:07:20;;;;;;;;;;;;;;;18.22;34.54;101066.53;5068945;28;20021;-67
2023/12/06 02:09:45;;;;;;;;;;;;;;;18.22;34.58;101065.69;5069477;28;20299;-66
2023/12/06 02:12:11;;;;;;;;;;;;;;;18.22;34.62;101077.09;5069376;28;19916;-66
2023/12/06 02:14:36;;;;;;;;;;;;;;;18.21;34.46;101075.41;5069118;28;20361;-68
2023/12/06 02:17:03;;;;;;;;;;;;;;;18.20;34.45;101081.66;5069525;28;19912;-67
2023/12/06 02:19:29;;;;;;;;;;;;;;;18.19;34.41;101087.88;5069355;28;19916;-68
2023/12/06 02:21:55;;;;;;;;;;;;;;;18.19;34.54;101084.41;5069576;28;20410;-67
2023/12/06 02:24:20;;;;;;;;;;;;;;;18.18;34.61;101088.00;5069404;28;20078;-68
2023/12/06 02:26:45;;;;;;;;;;;;;;;18.17;34.82;101075.78;5069834;28;20461;-67
2023/12/06 02:29:11;;;;;;;;;;;;;;;18.16;34.48;101079.38;5068644;28;19967;-68
2023/12/06 02:31:36;;;;;;;;;;;;;;;18.16;34.82;101082.84;5068651;28;19927;-68
2023/12/06 02:34:06;;;;;;;;;;;;;;;18.15;34.56;101086.44;5069079;28;20089;-67
2023/12/06 02:36:32;;;;;;;;;;;;;;;18.15;34.44;101086.44;5068843;28;19943;-69
2023/12/06 02:38:57;;;;;;;;;;;;;;;18.13;34.63;101083.06;5069072;28;20273;-67
2023/12/06 02:41:24;;;;;;;;;;;;;;;18.13;34.69;101083.06;5068893;28;19920;-67
2023/12/06 02:43:50;;;;;;;;;;;;;;;18.13;34.46;101088.34;5068227;28;19969;-67
2023/12/06 02:46:15;;;;;;;;;;;;;;;18.12;34.49;101073.50;5068646;28;19913;-69
2023/12/06 02:48:40;;;;;;;;;;;;;;;18.11;34.65;101080.56;5068576;28;19921;-68
2023/12/06 02:51:05;;;;;;;;;;;;;;;18.11;34.57;101088.47;5068313;28;19913;-70
2023/12/06 02:53:31;;;;;;;;;;;;;;;18.09;34.74;101082.47;5068288;28;20362;-67
2023/12/06 02:55:56;;;;;;;;;;;;;;;18.09;34.67;101085.13;5068108;28;19916;-68
2023/12/06 02:58:21;;;;;;;;;;;;;;;18.09;34.67;101086.91;5068362;28;19912;-66
2023/12/06 03:00:49;;;;;;;;;;;;;;;18.08;34.67;101096.59;5068415;28;20282;-66
2023/12/06 03:03:14;;;;;;;;;;;;;;;18.08;34.64;101090.50;5068988;28;20357;-66
2023/12/06 03:05:39;;;;;;;;;;;;;;;18.07;34.85;101092.31;5050500;28;19921;-66
2023/12/06 03:08:04;;;;;;;;;;;;;;;18.06;34.46;101093.25;5050434;28;19921;-67
2023/12/06 03:10:29;;;;;;;;;;;;;;;18.04;34.48;101084.63;5068538;28;19931;-67
2023/12/06 03:12:55;;;;;;;;;;;;;;;18.05;34.79;101082.81;5068167;28;20300;-68
2023/12/06 03:15:20;;;;;;;;;;;;;;;18.03;34.67;101085.59;5068416;28;20025;-67
2023/12/06 03:17:45;;;;;;;;;;;;;;;18.03;34.56;101077.66;5068516;28;20372;-67
2023/12/06 03:20:10;;;;;;;;;;;;;;;18.03;34.73;101079.47;5068328;28;19920;-69
2023/12/06 03:22:36;;;;;;;;;;;;;;;18.02;34.58;101086.53;5068601;28;21639;-68
2023/12/06 03:25:01;;;;;;;;;;;;;;;18.01;34.55;101092.78;5068300;28;19969;-68
2023/12/06 03:27:27;;;;;;;;;;;;;;;18.00;34.75;101091.09;5067796;28;20284;-68
2023/12/06 03:29:52;;;;;;;;;;;;;;;18.00;34.57;101103.44;5067220;28;20207;-67
2023/12/06 03:32:17;;;;;;;;;;;;;;;17.99;34.91;101104.41;5068125;28;19920;-67
2023/12/06 03:34:43;;;;;;;;;;;;;;;17.99;34.59;101110.53;5068160;28;19928;-67
2023/12/06 03:37:08;;;;;;;;;;;;;;;17.99;34.80;101113.16;5067733;28;19920;-68
2023/12/06 03:39:33;;;;;;;;;;;;;;;17.99;34.73;101114.94;5068109;28;20070;-69
2023/12/06 03:41:59;;;;;;;;;;;;;;;17.99;34.72;101109.66;5067754;28;20353;-68
2023/12/06 03:44:25;;;;;;;;;;;;;;;17.97;34.59;101107.16;5066244;28;19960;-66
2023/12/06 03:46:50;;;;;;;;;;;;;;;17.96;34.69;101110.75;5067513;28;19999;-67
2023/12/06 03:49:15;;;;;;;;;;;;;;;17.96;34.52;101113.41;5067685;28;19912;-67
2023/12/06 03:51:40;;;;;;;;;;;;;;;17.94;34.94;101110.88;5067223;28;19917;-66
2023/12/06 03:54:06;;;;;;;;;;;;;;;17.95;34.93;101119.63;5067507;28;19920;-68
2023/12/06 03:56:31;;;;;;;;;;;;;;;17.94;34.82;101117.94;5067110;28;19919;-68
2023/12/06 03:58:56;;;;;;;;;;;;;;;17.94;34.93;101124.06;5067437;28;20325;-67
2023/12/06 04:01:21;;;;;;;;;;;;;;;17.95;34.87;101119.63;5067513;28;20364;-68
2023/12/06 04:03:47;;;;;;;;;;;;;;;17.94;34.80;101123.19;5067462;28;19919;-66
2023/12/06 04:06:12;;;;;;;;;;;;;;;17.94;34.79;101118.78;5049569;28;19919;-66
2023/12/06 04:08:37;;;;;;;;;;;;;;;17.94;34.58;101117.94;5067455;28;19912;-65
2023/12/06 04:11:03;;;;;;;;;;;;;;;17.92;34.71;101123.31;5067368;28;20333;-65
2023/12/06 04:13:28;;;;;;;;;;;;;;;17.92;34.89;101127.75;5066915;28;20343;-66
2023/12/06 04:15:53;;;;;;;;;;;;;;;17.91;35.00;101126.06;5067242;28;19966;-67
2023/12/06 04:18:18;;;;;;;;;;;;;;;17.91;34.67;101136.63;5067389;28;19958;-65
2023/12/06 04:20:44;;;;;;;;;;;;;;;17.90;34.69;101137.59;5067257;28;19974;-67
2023/12/06 04:23:09;;;;;;;;;;;;;;;17.90;34.76;101138.41;5067213;28;19912;-66
2023/12/06 04:25:35;;;;;;;;;;;;;;;17.90;34.86;101145.50;5067147;28;19974;-69
2023/12/06 04:28:00;;;;;;;;;;;;;;;17.89;35.01;101139.38;5066379;28;19960;-66
2023/12/06 04:30:25;;;;;;;;;;;;;;;17.88;35.11;101136.84;5065400;28;19930;-66
2023/12/06 04:32:50;;;;;;;;;;;;;;;17.88;34.96;101140.34;5066431;28;20257;-66
2023/12/06 04:35:15;;;;;;;;;;;;;;;17.88;35.10;101145.63;5066250;28;19912;-66
2023/12/06 04:37:41;;;;;;;;;;;;;;;17.87;34.92;101149.16;5066770;28;19947;-67
2023/12/06 04:40:07;;;;;;;;;;;;;;;17.87;34.92;101150.97;5066688;28;19973;-67
2023/12/06 04:42:32;;;;;;;;;;;;;;;17.86;34.72;101149.28;5066703;28;19912;-67
2023/12/06 04:44:57;;;;;;;;;;;;;;;17.87;34.75;101156.25;5066799;28;20629;-67
2023/12/06 04:47:23;;;;;;;;;;;;;;;17.87;35.13;101161.53;5066778;28;19912;-68
2023/12/06 04:49:48;;;;;;;;;;;;;;;17.86;34.77;101159.81;5067294;28;20249;-67
2023/12/06 04:52:13;;;;;;;;;;;;;;;17.86;34.89;101165.09;5067298;28;20340;-67
2023/12/06 04:54:38;;;;;;;;;;;;;;;17.85;34.85;101155.50;5066379;28;20304;-68
2023/12/06 04:57:04;;;;;;;;;;;;;;;17.84;35.05;101157.31;5066920;28;19919;-69
2023/12/06 04:59:29;;;;;;;;;;;;;;;17.84;34.80;101159.09;5048694;28;20246;-66
2023/12/06 05:01:54;;;;;;;;;;;;;;;17.84;35.03;101167.03;5066496;28;20380;-68
2023/12/06 05:04:22;;;;;;;;;;;;;;;17.84;34.98;101167.03;5066854;28;19920;-68
2023/12/06 05:06:47;;;;;;;;;;;;;;;17.84;34.84;101172.28;5067050;28;19920;-66
2023/12/06 05:09:12;;;;;;;;;;;;;;;17.83;35.07;101167.97;5066914;28;19926;-67
2023/12/06 05:11:37;;;;;;;;;;;;;;;17.82;34.98;101172.41;5048215;28;19920;-67
2023/12/06 05:14:03;;;;;;;;;;;;;;;17.82;35.14;101176.84;5066787;28;19963;-66
2023/12/06 05:16:28;;;;;;;;;;;;;;;17.81;35.00;101185.69;5066743;28;19966;-67
2023/12/06 05:18:53;;;;;;;;;;;;;;;17.80;35.11;101181.38;5066654;28;19920;-67
2023/12/06 05:21:19;;;;;;;;;;;;;;;17.80;35.05;101186.66;5048820;28;19912;-65
2023/12/06 05:23:44;;;;;;;;;;;;;;;17.80;35.09;101190.16;5066559;28;19927;-67
2023/12/06 05:26:09;;;;;;;;;;;;;;;17.80;35.19;101199.81;5066224;28;19924;-66
2023/12/06 05:28:34;;;;;;;;;;;;;;;17.79;34.96;101190.25;5067161;28;19920;-66
2023/12/06 05:30:59;;;;;;;;;;;;;;;17.79;35.20;101190.25;5065712;28;20371;-67
2023/12/06 05:33:25;;;;;;;;;;;;;;;17.78;35.17;101197.31;5066530;28;19943;-68
2023/12/06 05:35:50;;;;;;;;;;;;;;;17.77;34.95;101187.72;5066586;28;19982;-67
2023/12/06 05:38:15;;;;;;;;;;;;;;;17.78;35.00;101194.66;5066580;28;19927;-67
2023/12/06 05:40:41;;;;;;;;;;;;;;;17.76;35.13;101189.50;5066214;28;19925;-66
2023/12/06 05:43:06;;;;;;;;;;;;;;;17.77;35.23;101196.47;5065885;28;19924;-67
2023/12/06 05:45:32;;;;;;;;;;;;;;;17.78;35.26;101202.56;5066475;28;19913;-67
2023/12/06 05:47:57;;;;;;;;;;;;;;;17.80;35.29;101202.47;5066365;28;20011;-67
2023/12/06 05:50:22;;;;;;;;;;;;;;;17.84;35.40;101201.28;5066359;28;19956;-68
2023/12/06 05:52:47;;;;;;;;;;;;;;;17.86;35.52;101202.84;5066349;28;20357;-68
2023/12/06 05:55:13;;;;;;;;;;;;;;;17.89;35.56;101201.81;5066510;28;19916;-68
2023/12/06 05:57:38;;;;;;;;;;;;;;;17.93;35.72;101203.28;5066407;28;19913;-67
2023/12/06 06:00:05;;;;;;;;;;;;;;;17.98;35.60;101205.59;5066049;28;19919;-67
2023/12/06 06:02:30;;;;;;;;;;;;;;;18.04;35.72;101215.63;5065719;28;20420;-68
2023/12/06 06:04:56;;;;;;;;;;;;;;;18.08;35.29;101217.94;5064701;28;20031;-67
2023/12/06 06:07:21;;;;;;;;;;;;;;;18.12;35.40;101219.41;5067371;28;20252;-68
2023/12/06 06:09:46;;;;;;;;;;;;;;;18.16;35.30;101219.16;5069553;28;20383;-67
2023/12/06 06:12:12;;;;;;;;;;;;;;;18.19;35.23;101214.50;5069538;28;19956;-67
2023/12/06 06:14:37;;;;;;;;;;;;;;;18.22;35.42;101213.44;5069448;28;20007;-69
2023/12/06 06:17:02;;;;;;;;;;;;;;;18.25;35.33;101223.75;5069695;28;20380;-67
2023/12/06 06:19:27;;;;;;;;;;;;;;;18.26;35.17;101226.28;5069410;28;19920;-69
2023/12/06 06:21:53;;;;;;;;;;;;;;;18.29;35.44;101226.06;5069558;28;19920;-68
2023/12/06 06:24:18;;;;;;;;;;;;;;;18.30;35.24;101227.72;5069630;28;19920;-70
2023/12/06 06:26:43;;;;;;;;;;;;;;;18.33;35.38;101231.09;5051119;28;20609;-68
2023/12/06 06:29:08;;;;;;;;;;;;;;;18.34;35.46;101235.41;5069196;28;19930;-68
2023/12/06 06:31:34;;;;;;;;;;;;;;;18.36;35.30;101233.47;5069479;28;19924;-69
2023/12/06 06:34:01;;;;;;;;;;;;;;;18.38;35.15;101247.41;5069181;28;20019;-68
2023/12/06 06:36:27;;;;;;;;;;;;;;;18.37;35.25;101238.63;5069355;28;19920;-67
2023/12/06 06:38:52;;;;;;;;;;;;;;;18.40;35.24;101250.75;5068285;28;19928;-67
2023/12/06 06:41:17;;;;;;;;;;;;;;;18.41;35.34;101257.75;5068791;28;19913;-67
2023/12/06 06:43:42;;;;;;;;;;;;;;;18.41;35.11;101255.09;5067799;28;19916;-67
2023/12/06 06:46:08;;;;;;;;;;;;;;;18.41;35.06;101255.09;5069098;28;20364;-67
2023/12/06 06:48:33;;;;;;;;;;;;;;;18.43;35.09;101261.09;5069078;28;20249;-67
2023/12/06 06:50:58;;;;;;;;;;;;;;;18.43;35.17;101259.28;5069407;28;19912;-67
2023/12/06 06:53:24;;;;;;;;;;;;;;;18.45;35.13;101256.53;5068951;28;19913;-69
2023/12/06 06:55:49;;;;;;;;;;;;;;;18.46;35.24;101261.69;5050661;28;19918;-67
2023/12/06 06:58:14;;;;;;;;;;;;;;;18.47;35.50;101263.38;5068830;28;19924;-67
2023/12/06 07:00:39;;;;;;;;;;;;;;;18.49;35.28;101264.09;5068781;28;19913;-67
2023/12/06 07:03:04;;;;;;;;;;;;;;;18.51;35.58;101263.97;5068358;28;19913;-66
2023/12/06 07:05:30;;;;;;;;;;;;;;;18.52;35.92;101259.53;5068163;28;19920;-68
2023/12/06 07:07:55;;;;;;;;;;;;;;;18.52;36.01;101267.44;5068552;28;19912;-68
2023/12/06 07:10:20;;;;;;;;;;;;;;;18.53;36.11;101269.97;5068265;28;19938;-67
2023/12/06 07:12:45;;;;;;;;;;;;;;;18.55;36.29;101273.34;5068585;28;19919;-67
2023/12/06 07:15:14;;;;;;;;;;;;;;;18.57;36.44;101271.44;5068551;28;19916;-67
2023/12/06 07:17:40;;;;;;;;;;;;;;;18.59;36.59;101266.03;5067929;28;20373;-67
2023/12/06 07:20:06;;;;;;;;;;;;;;;18.60;37.04;101275.66;5067842;28;19920;-67
2023/12/06 07:22:31;;;;;;;;;;;;;;;18.60;37.03;101286.22;5068349;28;20291;-66
2023/12/06 07:24:56;;;;;;;;;;;;;;;18.60;37.17;101278.28;5068428;28;19925;-67
2023/12/06 07:27:22;;;;;;;;;;;;;;;18.62;37.22;101286.94;5068044;28;19939;-65
2023/12/06 07:29:47;;;;;;;;;;;;;;;18.63;37.09;101283.34;5067233;28;19920;-67
2023/12/06 07:32:12;;;;;;;;;;;;;;;18.64;37.22;101283.22;5068015;28;20264;-67
2023/12/06 07:34:37;;;;;;;;;;;;;;;18.65;37.44;101284.88;5068019;28;20023;-67
2023/12/06 07:37:02;;;;;;;;;;;;;;;18.66;37.33;101285.75;5067773;28;19920;-67
2023/12/06 07:39:28;;;;;;;;;;;;;;;18.68;37.03;101294.38;5068113;28;20349;-68
2023/12/06 07:41:53;;;;;;;;;;;;;;;18.68;36.88;101300.50;5067443;28;19913;-68
2023/12/06 07:44:20;;;;;;;;;;;;;;;18.67;36.98;101300.59;5067566;28;19931;-67
2023/12/06 07:46:46;;;;;;;;;;;;;;;18.68;37.04;101302.31;5037075;28;20510;-67
2023/12/06 07:49:12;;;;;;;;;;;;;;;18.66;37.29;101297.13;5054534;28;20260;-67
2023/12/06 07:51:38;;;;;;;;;;;;;;;18.66;37.07;101302.41;5067395;28;19920;-68
2023/12/06 07:54:03;;;;;;;;;;;;;;;18.68;37.02;101302.31;5067699;28;20386;-68
2023/12/06 07:56:28;;;;;;;;;;;;;;;18.68;37.10;101311.06;5067553;28;19920;-67
2023/12/06 07:58:57;;;;;;;;;;;;;;;18.70;37.19;101316.22;5067778;28;20331;-67
2023/12/06 08:01:22;;;;;;;;;;;;;;;18.71;37.29;101311.75;5067335;28;20013;-67
2023/12/06 08:03:48;;;;;;;;;;;;;;;18.71;37.19;101310.00;5067041;28;19960;-68
2023/12/06 08:06:13;;;;;;;;;;;;;;;18.72;37.25;101313.47;5067172;28;19920;-68
2023/12/06 08:08:39;;;;;;;;;;;;;;;18.71;36.94;101320.53;5066958;28;20294;-68
2023/12/06 08:11:04;;;;;;;;;;;;;;;18.72;36.71;101326.66;5066512;28;20285;-68
2023/12/06 08:13:29;;;;;;;;;;;;;;;18.71;37.18;101323.19;5067537;28;19940;-68
2023/12/06 08:15:54;;;;;;;;;;;;;;;18.71;37.09;101320.53;5067942;28;20371;-68
2023/12/06 08:18:20;;;;;;;;;;;;;;;18.70;36.95;101334.69;5067575;28;19920;-67
2023/12/06 08:20:45;;;;;;;;;;;;;;;18.71;37.19;101325.81;5067878;28;19919;-67
2023/12/06 08:23:10;;;;;;;;;;;;;;;18.72;36.80;101326.66;5067612;28;19925;-66
2023/12/06 08:25:35;;;;;;;;;;;;;;;18.72;37.13;101330.13;5067611;28;20365;-68
2023/12/06 08:28:00;;;;;;;;;;;;;;;18.73;37.21;101328.34;5067788;28;20006;-67
2023/12/06 08:30:26;;;;;;;;;;;;;;;18.74;37.19;101335.28;5065915;28;20242;-68
2023/12/06 08:32:51;;;;;;;;;;;;;;;18.73;36.99;101342.38;5066676;28;19924;-68
2023/12/06 08:35:17;;;;;;;;;;;;;;;18.76;37.01;101338.69;5063397;28;19920;-68
2023/12/06 08:37:42;;;;;;;;;;;;;;;18.78;36.90;101340.22;5065444;28;19925;-65
2023/12/06 08:40:10;;;;;;;;;;;;;;;18.79;36.99;101343.72;5065207;28;19921;-69
2023/12/06 08:42:35;;;;;;;;;;;;;;;18.78;36.84;101348.16;5066390;28;19913;-68
2023/12/06 08:45:00;;;;;;;;;;;;;;;18.77;37.01;101348.28;5066306;28;20383;-68
2023/12/06 08:47:26;;;;;;;;;;;;;;;18.76;36.79;101352.72;5066829;28;20414;-68
2023/12/06 08:49:51;;;;;;;;;;;;;;;18.76;36.78;101358.00;5066406;28;19932;-67
2023/12/06 08:52:16;;;;;;;;;;;;;;;18.77;36.52;101369.38;5066225;28;20383;-67
2023/12/06 08:54:41;;;;;;;;;;;;;;;18.76;36.40;101365.91;5066784;28;19912;-67
2023/12/06 08:57:07;;;;;;;;;;;;;;;18.77;36.27;101367.63;5066402;28;19935;-67
2023/12/06 08:59:32;;;;;;;;;;;;;;;18.78;36.39;101373.72;5066632;28;19924;-69
2023/12/06 09:01:57;;;;;;;;;;;;;;;18.77;36.18;101379.94;5066337;28;19920;-67
2023/12/06 09:04:22;;;;;;;;;;;;;;;18.77;36.43;101374.66;5048322;28;19928;-68
2023/12/06 09:06:48;;;;;;;;;;;;;;;18.77;36.43;101386.09;5063254;28;19913;-66
2023/12/06 09:09:17;;;;;;;;;;;;;;;18.77;36.48;101382.59;5065265;28;20019;-67
2023/12/06 09:11:42;;;;;;;;;;;;;;;18.79;36.45;101378.06;5066716;28;19912;-68
2023/12/06 09:14:10;;;;;;;;;;;;;;;18.81;36.53;101384.06;5058185;28;19945;-69
2023/12/06 09:16:36;;;;;;;;;;;;;;;18.81;36.23;101381.41;5065021;28;19921;-68
2023/12/06 09:19:01;;;;;;;;;;;;;;;18.81;36.26;101389.34;5066193;28;20468;-67
2023/12/06 09:21:38;;;;;;;;;;;;;;;18.81;36.59;101386.69;5065988;28;19974;-67
2023/12/06 09:24:04;;;;;;;;;;;;;;;18.80;36.23;101391.16;5065746;28;19913;-66
2023/12/06 09:26:29;;;;;;;;;;;;;;;18.80;36.39;101387.66;5065391;28;19920;-67
2023/12/06 09:28:54;;;;;;;;;;;;;;;18.78;36.43;101393.03;5065799;28;19920;-66
2023/12/06 09:31:19;;;;;;;;;;;;;;;18.79;36.45;101384.16;5047883;28;20233;-66
2023/12/06 09:33:44;;;;;;;;;;;;;;;18.79;36.40;101396.53;5065501;28;19920;-65
2023/12/06 09:36:10;;;;;;;;;;;;;;;18.80;36.33;101392.94;5066106;28;19995;-67
2023/12/06 09:38:35;;;;;;;;;;;;;;;18.80;36.29;101399.06;5065558;28;19930;-67
2023/12/06 09:41:01;;;;;;;;;;;;;;;18.81;36.18;101397.25;5065606;28;19923;-67
2023/12/06 09:43:27;;;;;;;;;;;;;;;18.82;36.31;101404.25;5068459;28;19924;-67
2023/12/06 09:45:52;;;;;;;;;;;;;;;18.82;36.48;101404.25;5069736;28;19974;-68
2023/12/06 09:48:17;;;;;;;;;;;;;;;18.82;36.48;101410.34;5069772;28;19932;-67
2023/12/06 09:50:43;;;;;;;;;;;;;;;18.81;36.22;101415.75;5069516;28;19925;-67
2023/12/06 09:53:08;;;;;;;;;;;;;;;18.82;36.10;101428.84;5069213;28;19920;-69
2023/12/06 09:55:35;;;;;;;;;;;;;;;18.83;36.15;101419.09;5068819;28;19919;-67
2023/12/06 09:58:00;;;;;;;;;;;;;;;18.82;36.51;101423.56;5069187;28;19920;-69
2023/12/06 10:00:25;;;;;;;;;;;;;;;18.83;36.34;101427.03;5069566;28;20358;-68
2023/12/06 10:02:54;;;;;;;;;;;;;;;18.80;36.64;101425.47;5069358;28;20058;-66
2023/12/06 10:05:23;;;;;;;;;;;;;;;18.81;36.44;101426.31;5069037;28;19921;-68
2023/12/06 10:07:49;;;;;;;;;;;;;;;18.82;36.36;101425.38;5069479;28;19920;-68
2023/12/06 10:10:15;;;;;;;;;;;;;;;18.82;36.63;101428.00;5067789;28;19962;-67
2023/12/06 10:12:47;;;;;;;;;;;;;;;18.83;36.60;101424.38;5069389;28;19924;-66
2023/12/06 10:15:14;;;;;;;;;;;;;;;18.82;36.50;101422.72;5069407;28;19952;-67
2023/12/06 10:17:39;;;;;;;;;;;;;;;18.82;36.56;101433.28;5063550;28;19932;-69
2023/12/06 10:20:05;;;;;;;;;;;;;;;18.81;36.63;101423.66;5068081;28;19921;-67
2023/12/06 10:22:31;;;;;;;;;;;;;;;18.80;36.55;101433.41;5068053;28;19920;-68
2023/12/06 10:24:56;;;;;;;;;;;;;;;18.79;36.59;101426.41;5068873;28;19923;-67
2023/12/06 10:27:23;;;;;;;;;;;;;;;18.77;36.79;101431.00;5068360;28;19926;-69
2023/12/06 10:29:50;;;;;;;;;;;;;;;18.78;36.57;101421.25;5067137;28;20432;-67
2023/12/06 10:32:16;;;;;;;;;;;;;;;18.75;36.79;101430.25;5067775;28;20415;-68
2023/12/06 10:34:41;;;;;;;;;;;;;;;18.74;36.78;101425.94;5067995;28;19924;-67
2023/12/06 10:37:08;;;;;;;;;;;;;;;18.74;36.60;101428.56;5068283;28;20011;-67
2023/12/06 10:39:36;;;;;;;;;;;;;;;18.75;36.48;101427.59;5068778;28;19996;-67
2023/12/06 10:42:07;;;;;;;;;;;;;;;18.77;36.46;101427.47;5068711;28;19924;-69
2023/12/06 10:44:33;;;;;;;;;;;;;;;18.76;36.58;101421.38;5067157;28;20281;-67
2023/12/06 10:46:59;;;;;;;;;;;;;;;18.76;36.73;101428.47;5067810;28;19924;-65
2023/12/06 10:49:26;;;;;;;;;;;;;;;18.77;36.70;101423.06;5067672;28;19978;-66
2023/12/06 10:51:52;;;;;;;;;;;;;;;18.76;36.54;101415.25;5067696;28;20418;-67
2023/12/06 10:54:17;;;;;;;;;;;;;;;18.75;36.64;101418.84;5067428;28;20042;-67
2023/12/06 10:56:43;;;;;;;;;;;;;;;18.76;36.58;101418.72;5067190;28;20029;-64
2023/12/06 10:59:09;;;;;;;;;;;;;;;18.77;36.92;101416.91;5068031;28;19927;-66
2023/12/06 11:01:35;;;;;;;;;;;;;;;18.76;36.68;101420.53;5067727;28;19919;-67
2023/12/06 11:04:01;;;;;;;;;;;;;;;18.77;36.50;101422.19;5067471;28;20276;-68
2023/12/06 11:11:10;;;;;;;5.57;2.30;;;;;;;18.62;35.97;101353.75;4996148;27;20227;-64
2023/12/06 11:13:56;;;;;;;4.90;2.10;;;;;;;18.71;36.36;101360.16;4994290;28;20080;-66
2023/12/06 11:16:52;;;;;;;4.70;2.10;;;;;;;18.83;36.15;101343.38;5049432;28;20086;-64
2023/12/06 11:19:19;;;;;;;4.68;2.20;;;;;;;18.77;36.32;101346.50;4990149;28;20501;-65
2023/12/06 11:21:44;;;;;;;4.47;2.20;;;;;;;18.97;36.02;101347.63;5049951;28;20027;-66
2023/12/06 11:24:13;;;;;;;4.20;2.22;;;;;;;18.78;36.18;101347.31;5049697;28;20043;-67
2023/12/06 11:26:39;;;;;;;5.38;2.40;;;;;;;18.61;36.57;101348.59;5049579;28;20056;-65
2023/12/06 11:29:06;;;;;;;4.93;2.17;;;;;;;18.49;36.80;101350.38;5049253;28;20087;-63
2023/12/06 11:31:37;;;;;;;5.43;2.30;;;;;;;18.44;37.08;101357.78;5024621;28;20409;-63
2023/12/06 11:34:09;;;;;;;5.15;2.30;;;;;;;18.47;36.67;101350.47;5049597;28;20048;-65
2023/12/06 11:36:37;;;;;;;4.78;2.25;;;;;;;18.54;36.45;101345.56;5048460;28;20470;-64
2023/12/06 11:39:17;;;;;;;5.13;2.55;;;;;;;18.66;36.52;101362.31;5048999;28;20028;-66
2023/12/06 11:41:53;;;;;;;5.57;2.43;;;;;;;18.56;36.32;101359.50;5046524;28;20047;-64
2023/12/06 11:44:19;;;;;;;5.05;2.25;;;;;;;18.53;36.36;101361.53;5048598;28;20056;-66
2023/12/06 11:46:48;;;;;;;;;;;;;;;18.40;36.72;101361.59;5050841;28;20059;-66
2023/12/06 11:49:13;;;;;;;;;;;;;;;18.37;37.00;101367.94;5049625;28;19908;-66
2023/12/06 11:51:40;;;;;;;;;;;;;;;18.46;36.94;101359.34;5049847;28;20345;-64
2023/12/06 11:54:05;;;;;;;;;;;;;;;18.49;36.79;101358.28;5050162;28;19915;-65
2023/12/06 11:56:30;;;;;;;4.40;2.30;;;;;;;18.47;36.61;101354.94;5049756;28;19917;-65
2023/12/06 11:58:57;;;;;;;;;;;;;;;18.55;36.51;101359.59;5049945;28;20057;-64
2023/12/06 12:01:22;;;;;;;;;;;;;;;18.62;36.63;101359.03;5049709;28;20075;-65
2023/12/06 12:03:49;;;;;;;5.10;2.40;;;;;;;18.55;36.58;101357.81;5049606;28;19967;-66
2023/12/06 12:06:15;;;;;;;5.27;2.33;;;;;;;18.54;36.67;101356.13;5004160;28;20531;-66
2023/12/06 12:08:41;;;;;;;;;;;;;;;18.55;36.60;101352.53;5048511;28;20315;-66
2023/12/06 13:33:42;;;;;;;7.07;2.33;;;;;;;18.81;37.46;101370.84;5041349;27;20432;-69
2023/12/06 13:45:46;;;;;;;3.17;1.50;;;;;;;20.14;35.35;101442.53;5105268;27;1216372;-70
2023/12/06 13:48:11;;;;;;;4.47;1.98;;;;;;;19.69;35.69;101453.97;5105430;28;20051;-70
2023/12/06 13:50:36;;;;;;;3.75;1.50;;;;;;;19.29;36.36;101438.56;5104198;28;20604;-68
2023/12/06 13:53:03;;;;;;;3.90;1.60;;;;;;;19.11;36.54;101448.75;5104078;28;20036;-70
2023/12/06 13:55:29;;;;;;;3.88;1.63;;;;;;;18.93;37.67;101448.34;5070814;27;20109;-70
2023/12/06 13:57:56;;;;;;;4.35;1.65;;;;;;;18.77;37.62;101445.97;5102514;28;20384;-69
2023/12/06 14:00:21;;;;;;;4.15;1.73;;;;;;;18.66;37.50;101450.25;5106055;28;20032;-69